createdAt,value
2022-09-21T00:00:50.321Z,96274.34
2022-09-21T00:03:19.424Z,96272.25
2022-09-21T00:05:47.307Z,96275.66
2022-09-21T00:08:15.401Z,96268.81
2022-09-21T00:10:43.747Z,96275.44
2022-09-21T00:13:13.371Z,96275.59
2022-09-21T00:15:42.159Z,96276.56
2022-09-21T00:18:11.372Z,96276.56
2022-09-21T00:20:43.637Z,96269.97
2022-09-21T00:23:11.535Z,96282.81
2022-09-21T00:25:39.766Z,96277.25
2022-09-21T00:28:07.368Z,96272.00
2022-09-21T00:30:35.831Z,96271.38
2022-09-21T00:33:03.526Z,96267.28
2022-09-21T00:35:31.451Z,96284.00
2022-09-21T00:38:03.014Z,96272.00
2022-09-21T00:40:31.787Z,96280.84
2022-09-21T00:43:13.170Z,96276.19
2022-09-21T00:45:42.009Z,96275.84
2022-09-21T00:48:10.351Z,96275.47
2022-09-21T00:50:43.842Z,96271.44
2022-09-21T00:53:13.000Z,96274.38
2022-09-21T00:55:44.552Z,96273.16
2022-09-21T00:58:15.569Z,96274.22
2022-09-21T01:00:43.918Z,96278.41
2022-09-21T01:03:13.470Z,96278.72
2022-09-21T01:05:41.114Z,96279.72
2022-09-21T01:08:13.054Z,96276.22
2022-09-21T01:10:58.276Z,96279.41
2022-09-21T01:13:37.586Z,96281.63
2022-09-21T01:16:14.580Z,96277.38
2022-09-21T01:18:47.783Z,96271.44
2022-09-21T01:21:21.746Z,96271.00
2022-09-21T01:24:09.863Z,96274.50
2022-09-21T01:26:55.292Z,96272.84
2022-09-21T01:29:28.466Z,96275.09
2022-09-21T01:32:02.919Z,96276.22
2022-09-21T01:34:34.949Z,96274.16
2022-09-21T01:37:10.742Z,96275.81
2022-09-21T01:39:41.906Z,96272.38
2022-09-21T01:42:11.658Z,96268.78
2022-09-21T01:44:43.398Z,96274.31
2022-09-21T01:47:14.328Z,96268.00
2022-09-21T01:49:45.997Z,96264.72
2022-09-21T01:52:18.754Z,96263.63
2022-09-21T01:54:51.401Z,96256.75
2022-09-21T01:57:27.822Z,96269.03
2022-09-21T01:59:58.624Z,96267.22
2022-09-21T02:02:38.524Z,96265.59
2022-09-21T02:05:07.356Z,96264.31
2022-09-21T02:07:36.812Z,96269.72
2022-09-21T02:10:06.833Z,96270.22
2022-09-21T02:12:35.393Z,96269.72
2022-09-21T02:15:05.222Z,96268.34
2022-09-21T02:17:41.735Z,96266.41
2022-09-21T02:20:20.242Z,96268.06
2022-09-21T02:23:00.981Z,96267.91
2022-09-21T02:25:38.440Z,96268.72
2022-09-21T02:28:11.943Z,96267.91
2022-09-21T02:30:45.574Z,96268.88
2022-09-21T02:33:20.719Z,96267.22
2022-09-21T02:35:54.087Z,96262.97
2022-09-21T02:38:29.632Z,96267.22
2022-09-21T02:41:06.531Z,96269.19
2022-09-21T02:43:38.623Z,96279.94
2022-09-21T02:46:13.094Z,96274.69
2022-09-21T02:48:48.095Z,96274.03
2022-09-21T02:51:26.074Z,96267.44
2022-09-21T02:53:56.281Z,96277.22
2022-09-21T02:56:24.622Z,96277.53
2022-09-21T02:58:56.899Z,96276.44
2022-09-21T03:01:27.790Z,96279.78
2022-09-21T03:03:55.486Z,96274.31
2022-09-21T03:06:23.129Z,96280.56
2022-09-21T03:08:50.768Z,96275.88
2022-09-21T03:11:18.561Z,96274.66
2022-09-21T03:13:46.456Z,96273.84
2022-09-21T03:16:14.949Z,96280.19
2022-09-21T03:18:45.313Z,96295.91
2022-09-21T03:21:13.467Z,96288.47
2022-09-21T03:23:41.590Z,96285.84
2022-09-21T03:26:09.729Z,96289.88
2022-09-21T03:28:37.657Z,96292.63
2022-09-21T03:31:06.482Z,96284.66
2022-09-21T03:33:34.976Z,96298.72
2022-09-21T03:36:04.162Z,96294.41
2022-09-21T03:38:32.239Z,96299.78
2022-09-21T03:40:59.891Z,96302.16
2022-09-21T03:43:28.131Z,96305.03
2022-09-21T03:45:55.825Z,96299.78
2022-09-21T03:48:23.534Z,96301.44
2022-09-21T03:50:51.474Z,96297.44
2022-09-21T03:53:20.802Z,96298.41
2022-09-21T03:55:48.523Z,96296.75
2022-09-21T03:58:16.662Z,96300.88
2022-09-21T04:00:44.266Z,96300.59
2022-09-21T04:03:12.180Z,96302.38
2022-09-21T04:05:40.016Z,96297.84
2022-09-21T04:08:08.545Z,96301.16
2022-09-21T04:10:37.510Z,96308.59
2022-09-21T04:13:07.023Z,96297.31
2022-09-21T04:15:34.702Z,96303.50
2022-09-21T04:18:03.202Z,96306.41
2022-09-21T04:20:30.802Z,96301.44
2022-09-21T04:23:00.350Z,96308.59
2022-09-21T04:25:28.059Z,96307.22
2022-09-21T04:27:57.374Z,96306.25
2022-09-21T04:30:24.983Z,96306.50
2022-09-21T04:32:52.775Z,96309.13
2022-09-21T04:35:20.419Z,96312.47
2022-09-21T04:37:48.070Z,96305.81
2022-09-21T04:40:15.906Z,96301.41
2022-09-21T04:42:43.515Z,96311.59
2022-09-21T04:45:12.880Z,96305.28
2022-09-21T04:47:40.469Z,96316.28
2022-09-21T04:50:09.349Z,96312.72
2022-09-21T04:52:36.961Z,96314.34
2022-09-21T04:55:05.082Z,96309.13
2022-09-21T04:57:32.693Z,96319.59
2022-09-21T05:00:00.758Z,96316.97
2022-09-21T05:02:29.689Z,96314.34
2022-09-21T05:04:57.658Z,96322.50
2022-09-21T05:07:25.273Z,96319.59
2022-09-21T05:10:04.440Z,96326.75
2022-09-21T05:12:32.421Z,96326.22
2022-09-21T05:15:01.442Z,96332.84
2022-09-21T05:17:31.016Z,96337.81
2022-09-21T05:19:58.898Z,96339.19
2022-09-21T05:22:26.497Z,96344.13
2022-09-21T05:24:55.677Z,96344.41
2022-09-21T05:27:23.264Z,96343.88
2022-09-21T05:29:51.490Z,96343.06
2022-09-21T05:32:24.978Z,96344.97
2022-09-21T05:35:04.806Z,96339.75
2022-09-21T05:37:46.401Z,96342.25
2022-09-21T05:40:15.415Z,96348.56
2022-09-21T05:42:43.506Z,96347.50
2022-09-21T05:45:15.680Z,96350.25
2022-09-21T05:47:54.977Z,96358.25
2022-09-21T05:50:35.934Z,96358.25
2022-09-21T05:53:19.267Z,96363.25
2022-09-21T05:55:56.565Z,96358.53
2022-09-21T05:58:34.162Z,96351.34
2022-09-21T06:01:17.671Z,96350.78
2022-09-21T06:03:48.549Z,96354.91
2022-09-21T06:06:19.012Z,96361.50
2022-09-21T06:08:46.868Z,96352.84
2022-09-21T06:11:15.194Z,96351.00
2022-09-21T06:13:43.199Z,96348.75
2022-09-21T06:16:11.346Z,96347.06
2022-09-21T06:18:40.102Z,96348.91
2022-09-21T06:21:09.103Z,96352.19
2022-09-21T06:23:38.261Z,96350.03
2022-09-21T06:26:06.468Z,96344.56
2022-09-21T06:28:34.090Z,96353.09
2022-09-21T06:31:01.783Z,96345.81
2022-09-21T06:33:29.485Z,96355.75
2022-09-21T06:35:59.008Z,96355.13
2022-09-21T06:38:29.021Z,96352.00
2022-09-21T06:41:03.228Z,96354.63
2022-09-21T06:43:31.853Z,96347.00
2022-09-21T06:46:01.458Z,96350.00
2022-09-21T06:48:30.550Z,96350.91
2022-09-21T06:51:00.007Z,96355.59
2022-09-21T06:53:28.055Z,96354.94
2022-09-21T06:56:03.053Z,96352.63
2022-09-21T06:58:32.027Z,96353.25
2022-09-21T07:01:00.475Z,96352.53
2022-09-21T07:03:28.358Z,96350.19
2022-09-21T07:05:56.718Z,96359.47
2022-09-21T07:11:14.186Z,96364.56
2022-09-21T07:13:41.982Z,96368.56
2022-09-21T07:16:11.106Z,96363.97
2022-09-21T07:18:44.298Z,96365.81
2022-09-21T07:21:13.104Z,96367.03
2022-09-21T07:23:40.681Z,96362.22
2022-09-21T07:26:10.790Z,96361.56
2022-09-21T07:28:40.574Z,96365.47
2022-09-21T07:31:10.126Z,96368.22
2022-09-21T07:33:38.105Z,96371.19
2022-09-21T07:36:10.384Z,96372.44
2022-09-21T07:38:39.724Z,96374.41
2022-09-21T07:41:08.151Z,96373.31
2022-09-21T07:43:35.778Z,96373.56
2022-09-21T07:46:05.222Z,96380.59
2022-09-21T07:48:32.877Z,96373.00
2022-09-21T07:51:06.264Z,96381.13
2022-09-21T07:53:34.245Z,96375.75
2022-09-21T07:56:03.446Z,96381.28
2022-09-21T07:58:48.565Z,96375.00
2022-09-21T08:01:18.586Z,96376.06
2022-09-21T08:03:46.279Z,96373.59
2022-09-21T08:06:14.223Z,96384.38
2022-09-21T08:08:42.299Z,96379.66
2022-09-21T08:11:11.801Z,96376.56
2022-09-21T08:13:39.469Z,96382.41
2022-09-21T08:16:07.834Z,96381.91
2022-09-21T08:18:39.617Z,96373.75
2022-09-21T08:21:09.949Z,96377.72
2022-09-21T08:23:42.817Z,96376.72
2022-09-21T08:26:19.524Z,96378.25
2022-09-21T08:28:49.765Z,96376.47
2022-09-21T08:31:20.056Z,96379.88
2022-09-21T08:33:50.011Z,96367.75
2022-09-21T08:36:19.118Z,96376.75
2022-09-21T08:38:48.060Z,96367.28
2022-09-21T08:41:20.110Z,96371.94
2022-09-21T08:43:53.310Z,96376.69
2022-09-21T08:46:23.522Z,96371.06
2022-09-21T08:48:57.347Z,96370.69
2022-09-21T08:51:29.314Z,96371.19
2022-09-21T08:54:02.242Z,96368.00
2022-09-21T08:56:47.454Z,96358.31
2022-09-21T08:59:17.859Z,96371.84
2022-09-21T09:01:58.685Z,96368.16
2022-09-21T09:04:40.178Z,96369.47
2022-09-21T09:07:38.827Z,96363.97
2022-09-21T09:10:19.435Z,96368.28
2022-09-21T09:13:00.146Z,96365.22
2022-09-21T09:15:47.278Z,96360.28
2022-09-21T09:18:22.349Z,96356.63
2022-09-21T09:20:58.521Z,96357.66
2022-09-21T09:23:29.464Z,96359.31
2022-09-21T09:26:02.203Z,96368.13
2022-09-21T09:28:34.382Z,96353.22
2022-09-21T09:31:10.496Z,96337.44
2022-09-21T09:33:47.314Z,96344.34
2022-09-21T09:36:20.772Z,96335.94
2022-09-21T09:39:02.749Z,96338.34
2022-09-21T09:41:58.441Z,96328.09
2022-09-21T09:45:00.830Z,96322.44
2022-09-21T09:47:43.284Z,96332.75
2022-09-21T09:50:14.746Z,96327.00
2022-09-21T09:52:45.182Z,96319.25
2022-09-21T09:55:20.441Z,96315.56
2022-09-21T09:57:49.332Z,96318.72
2022-09-21T10:00:20.163Z,96311.00
2022-09-21T10:02:49.913Z,96316.19
2022-09-21T10:05:24.010Z,96304.84
2022-09-21T10:07:54.699Z,96298.34
2022-09-21T10:10:27.918Z,96301.00
2022-09-21T10:12:58.336Z,96299.84
2022-09-21T10:15:26.108Z,96305.66
2022-09-21T10:18:01.106Z,96299.56
2022-09-21T10:20:31.266Z,96293.94
2022-09-21T10:23:01.182Z,96293.50
2022-09-21T10:25:30.185Z,96295.81
2022-09-21T10:27:59.149Z,96286.00
2022-09-21T10:30:36.468Z,96298.63
2022-09-21T10:33:04.274Z,96290.00
2022-09-21T10:35:32.275Z,96287.19
2022-09-21T10:38:22.412Z,96287.16
2022-09-21T10:40:51.814Z,96290.25
2022-09-21T10:43:27.236Z,96289.78
2022-09-21T10:45:57.169Z,96270.50
2022-09-21T10:48:27.163Z,96272.72
2022-09-21T10:50:58.023Z,96279.94
2022-09-21T10:53:29.314Z,96276.34
2022-09-21T10:56:15.451Z,96277.59
2022-09-21T10:59:21.857Z,96274.34
2022-09-21T11:01:51.976Z,96271.44
2022-09-21T11:04:28.346Z,96271.53
2022-09-21T11:07:02.158Z,96272.72
2022-09-21T11:09:36.168Z,96274.41
2022-09-21T11:12:12.626Z,96268.31
2022-09-21T11:14:52.861Z,96270.56
2022-09-21T11:17:28.631Z,96261.81
2022-09-21T11:20:08.049Z,96261.72
2022-09-21T11:22:42.782Z,96262.22
2022-09-21T11:25:25.301Z,96255.66
2022-09-21T11:27:58.809Z,96253.28
2022-09-21T11:30:40.082Z,96255.50
2022-09-21T11:33:20.278Z,96254.91
2022-09-21T11:36:00.397Z,96252.91
2022-09-21T11:38:43.287Z,96255.59
2022-09-21T11:41:28.143Z,96249.34
2022-09-21T11:44:15.262Z,96246.66
2022-09-21T11:46:50.349Z,96245.84
2022-09-21T11:49:40.451Z,96243.66
2022-09-21T11:52:22.538Z,96240.31
2022-09-21T11:55:01.704Z,96237.72
2022-09-21T11:57:34.818Z,96243.53
2022-09-21T12:00:15.790Z,96234.22
2022-09-21T12:03:14.504Z,96236.88
2022-09-21T12:05:50.159Z,96233.09
2022-09-21T12:08:38.092Z,96235.34
2022-09-21T12:11:14.709Z,96236.59
2022-09-21T12:13:51.914Z,96223.09
2022-09-21T12:16:27.040Z,96218.88
2022-09-21T12:19:00.695Z,96219.94
2022-09-21T12:21:32.089Z,96224.31
2022-09-21T12:24:05.443Z,96221.06
2022-09-21T12:26:40.003Z,96221.81
2022-09-21T12:29:14.595Z,96222.56
2022-09-21T12:31:47.623Z,96229.41
2022-09-21T12:34:20.349Z,96221.72
2022-09-21T12:36:56.284Z,96216.78
2022-09-21T12:39:30.423Z,96205.50
2022-09-21T12:42:04.144Z,96208.63
2022-09-21T12:44:52.510Z,96209.41
2022-09-21T12:47:24.883Z,96210.25
2022-09-21T12:50:00.942Z,96209.19
2022-09-21T12:52:29.127Z,96212.34
2022-09-21T12:55:05.949Z,96209.81
2022-09-21T12:58:10.800Z,96212.06
2022-09-21T13:00:45.821Z,96214.66
2022-09-21T13:03:20.345Z,96211.19
2022-09-21T13:06:11.963Z,96215.84
2022-09-21T13:08:44.530Z,96202.66
2022-09-21T13:11:13.254Z,96212.13
2022-09-21T13:13:52.901Z,96209.47
2022-09-21T13:16:27.612Z,96207.25
2022-09-21T13:18:57.744Z,96195.94
2022-09-21T13:21:29.923Z,96202.53
2022-09-21T13:24:00.757Z,96205.22
2022-09-21T13:26:37.079Z,96200.59
2022-09-21T13:29:26.061Z,96199.75
2022-09-21T13:31:58.170Z,96196.13
2022-09-21T13:34:36.555Z,96193.00
2022-09-21T13:37:36.738Z,96192.22
2022-09-21T13:40:42.025Z,96190.84
2022-09-21T13:43:48.130Z,96191.75
2022-09-21T13:46:49.651Z,96180.69
2022-09-21T13:49:23.283Z,96186.47
2022-09-21T13:51:54.131Z,96185.69
2022-09-21T13:54:26.257Z,96186.06
2022-09-21T13:57:09.547Z,96185.09
2022-09-21T13:59:40.698Z,96189.09
2022-09-21T14:02:25.228Z,96189.78
2022-09-21T14:04:53.314Z,96173.75
2022-09-21T14:07:21.706Z,96175.00
2022-09-21T14:09:58.892Z,96187.94
2022-09-21T14:12:33.580Z,96179.16
2022-09-21T14:15:27.366Z,96176.13
2022-09-21T14:18:35.792Z,96183.03
2022-09-21T14:21:11.247Z,96179.53
2022-09-21T14:23:39.993Z,96181.78
2022-09-21T14:26:33.081Z,96175.88
2022-09-21T14:29:09.223Z,96174.72
2022-09-21T14:31:40.241Z,96174.31
2022-09-21T14:34:23.436Z,96180.06
2022-09-21T14:36:55.412Z,96184.59
2022-09-21T14:39:26.901Z,96179.63
2022-09-21T14:41:59.910Z,96174.06
2022-09-21T14:44:31.775Z,96169.34
2022-09-21T14:47:17.722Z,96172.59
2022-09-21T14:50:12.975Z,96172.25
2022-09-21T14:53:01.575Z,96164.44
2022-09-21T14:55:43.083Z,96165.00
2022-09-21T14:58:28.538Z,96151.94
2022-09-21T15:00:59.627Z,96152.03
2022-09-21T15:03:58.342Z,96146.59
2022-09-21T15:06:49.804Z,96157.41
2022-09-21T15:09:53.863Z,96154.22
2022-09-21T15:12:30.395Z,96156.50
2022-09-21T15:15:22.125Z,96151.28
2022-09-21T15:17:59.259Z,96151.50
2022-09-21T15:20:29.441Z,96146.50
2022-09-21T15:22:58.873Z,96149.28
2022-09-21T15:25:30.259Z,96155.53
2022-09-21T15:28:00.342Z,96144.03
2022-09-21T15:30:33.162Z,96145.69
2022-09-21T15:33:02.943Z,96143.78
2022-09-21T15:35:32.862Z,96131.97
2022-09-21T15:38:01.859Z,96142.22
2022-09-21T15:40:31.722Z,96146.19
2022-09-21T15:43:03.975Z,96137.03
2022-09-21T15:45:37.371Z,96135.38
2022-09-21T15:48:11.199Z,96130.94
2022-09-21T15:50:39.045Z,96127.13
2022-09-21T15:53:14.681Z,96127.44
2022-09-21T15:55:47.998Z,96126.63
2022-09-21T15:58:31.722Z,96128.78
2022-09-21T16:01:01.397Z,96129.44
2022-09-21T16:03:30.696Z,96131.03
2022-09-21T16:06:02.410Z,96130.91
2022-09-21T16:08:33.845Z,96132.75
2022-09-21T16:11:18.789Z,96130.47
2022-09-21T16:14:05.971Z,96132.41
2022-09-21T16:17:06.252Z,96132.91
2022-09-21T16:19:44.832Z,96139.13
2022-09-21T16:22:14.594Z,96139.16
2022-09-21T16:24:46.217Z,96136.47
2022-09-21T16:27:17.905Z,96142.22
2022-09-21T16:29:48.459Z,96145.91
2022-09-21T16:32:29.851Z,96145.56
2022-09-21T16:35:25.253Z,96142.38
2022-09-21T16:37:58.058Z,96150.19
2022-09-21T16:40:26.886Z,96144.47
2022-09-21T16:42:55.575Z,96144.50
2022-09-21T16:45:27.215Z,96151.88
2022-09-21T16:47:58.157Z,96143.72
2022-09-21T16:50:25.939Z,96144.72
2022-09-21T16:52:54.274Z,96153.94
2022-09-21T16:55:28.238Z,96147.75
2022-09-21T16:57:57.570Z,96150.16
2022-09-21T17:00:25.276Z,96143.38
2022-09-21T17:02:53.590Z,96149.69
2022-09-21T17:05:22.607Z,96146.38
2022-09-21T17:07:54.938Z,96152.41
2022-09-21T17:10:27.247Z,96152.38
2022-09-21T17:12:55.798Z,96153.31
2022-09-21T17:15:23.831Z,96152.19
2022-09-21T17:17:51.665Z,96157.03
2022-09-21T17:20:27.738Z,96157.94
2022-09-21T17:22:56.519Z,96150.88
2022-09-21T17:25:24.186Z,96153.06
2022-09-21T17:27:53.072Z,96159.09
2022-09-21T17:30:21.099Z,96170.41
2022-09-21T17:32:50.290Z,96158.03
2022-09-21T17:35:26.307Z,96165.22
2022-09-21T17:37:55.627Z,96162.06
2022-09-21T17:40:24.755Z,96163.25
2022-09-21T17:42:55.751Z,96160.34
2022-09-21T17:45:32.498Z,96166.59
2022-09-21T17:48:00.699Z,96171.97
2022-09-21T17:50:29.310Z,96173.38
2022-09-21T17:53:16.900Z,96173.56
2022-09-21T17:55:50.007Z,96172.09
2022-09-21T17:58:33.807Z,96185.78
2022-09-21T18:01:07.404Z,96178.56
2022-09-21T18:03:40.980Z,96175.66
2022-09-21T18:06:09.855Z,96177.72
2022-09-21T18:08:40.964Z,96182.09
2022-09-21T18:11:23.250Z,96180.16
2022-09-21T18:13:59.478Z,96183.53
2022-09-21T18:16:31.524Z,96182.00
2022-09-21T18:19:07.343Z,96187.38
2022-09-21T18:21:40.712Z,96187.59
2022-09-21T18:24:22.011Z,96186.03
2022-09-21T18:26:52.252Z,96194.19
2022-09-21T18:29:39.398Z,96195.72
2022-09-21T18:32:32.197Z,96197.72
2022-09-21T18:35:42.033Z,96194.78
2022-09-21T18:38:18.230Z,96195.81
2022-09-21T18:41:11.189Z,96198.66
2022-09-21T18:43:51.705Z,96199.50
2022-09-21T18:46:28.834Z,96199.19
2022-09-21T18:49:03.314Z,96202.88
2022-09-21T18:51:38.510Z,96209.16
2022-09-21T18:54:07.160Z,96202.94
2022-09-21T18:56:38.538Z,96212.84
2022-09-21T18:59:07.521Z,96205.63
2022-09-21T19:01:35.899Z,96209.25
2022-09-21T19:04:04.899Z,96213.53
2022-09-21T19:06:41.150Z,96213.22
2022-09-21T19:09:25.961Z,96210.09
2022-09-21T19:12:01.347Z,96208.97
2022-09-21T19:14:38.311Z,96208.50
2022-09-21T19:17:17.560Z,96202.72
2022-09-21T19:19:54.169Z,96208.34
2022-09-21T19:22:31.139Z,96209.00
2022-09-21T19:25:06.143Z,96208.88
2022-09-21T19:27:40.142Z,96211.03
2022-09-21T19:30:11.813Z,96212.38
2022-09-21T19:32:45.415Z,96210.03
2022-09-21T19:35:20.380Z,96213.69
2022-09-21T19:37:48.827Z,96221.59
2022-09-21T19:40:18.666Z,96210.22
2022-09-21T19:43:00.453Z,96217.00
2022-09-21T19:45:33.518Z,96212.34
2022-09-21T19:48:05.818Z,96215.66
2022-09-21T19:50:41.018Z,96215.00
2022-09-21T19:53:28.945Z,96215.66
2022-09-21T19:56:16.448Z,96214.72
2022-09-21T19:59:03.500Z,96211.72
2022-09-21T20:01:35.148Z,96207.13
2022-09-21T20:04:04.088Z,96214.72
2022-09-21T20:06:36.832Z,96217.00
2022-09-21T20:09:12.048Z,96209.91
2022-09-21T20:11:45.083Z,96210.59
2022-09-21T20:14:23.911Z,96215.34
2022-09-21T20:16:54.383Z,96214.69
2022-09-21T20:19:36.567Z,96214.03
2022-09-21T20:22:12.146Z,96209.59
2022-09-21T20:24:46.882Z,96213.38
2022-09-21T20:27:26.298Z,96213.03
2022-09-21T20:29:55.664Z,96213.69
2022-09-21T20:32:23.714Z,96222.25
2022-09-21T20:34:51.389Z,96223.56
2022-09-21T20:37:19.296Z,96228.31
2022-09-21T20:39:47.364Z,96226.16
2022-09-21T20:42:20.521Z,96224.84
2022-09-21T20:44:48.204Z,96227.13
2022-09-21T20:47:18.921Z,96222.19
2022-09-21T20:49:47.678Z,96228.09
2022-09-21T20:52:16.733Z,96229.78
2022-09-21T20:54:49.237Z,96227.59
2022-09-21T20:57:17.778Z,96236.50
2022-09-21T20:59:45.564Z,96239.28
2022-09-21T21:02:13.747Z,96234.31
2022-09-21T21:04:43.084Z,96236.28
2022-09-21T21:07:10.994Z,96237.78
2022-09-21T21:09:38.642Z,96226.56
2022-09-21T21:12:06.736Z,96236.91
2022-09-21T21:14:34.707Z,96234.75
2022-09-21T21:17:02.440Z,96235.06
2022-09-21T21:19:31.243Z,96230.97
2022-09-21T21:22:00.278Z,96226.16
2022-09-21T21:24:44.076Z,96234.22
2022-09-21T21:27:16.225Z,96227.59
2022-09-21T21:29:46.618Z,96227.09
2022-09-21T21:32:15.063Z,96224.63
2022-09-21T21:34:43.178Z,96230.22
2022-09-21T21:37:12.991Z,96230.81
2022-09-21T21:39:41.049Z,96240.84
2022-09-21T21:42:08.886Z,96235.72
2022-09-21T21:44:37.152Z,96228.31
2022-09-21T21:47:27.365Z,96230.25
2022-09-21T21:49:53.389Z,96236.50
2022-09-21T21:52:22.459Z,96234.00
2022-09-21T21:54:50.105Z,96235.47
2022-09-21T21:57:18.095Z,96230.50
2022-09-21T21:59:45.887Z,96228.03
2022-09-21T22:02:13.606Z,96238.84
2022-09-21T22:04:42.528Z,96233.75
2022-09-21T22:07:10.192Z,96237.66
2022-09-21T22:09:39.293Z,96235.50
2022-09-21T22:12:07.720Z,96233.47
2022-09-21T22:14:35.759Z,96232.16
2022-09-21T22:17:03.821Z,96227.72
2022-09-21T22:19:32.938Z,96221.09
2022-09-21T22:22:00.633Z,96213.38
2022-09-21T22:24:28.717Z,96222.56
2022-09-21T22:26:57.973Z,96225.47
2022-09-21T22:29:25.987Z,96215.94
2022-09-21T22:31:55.558Z,96215.13
2022-09-21T22:34:23.351Z,96211.84
2022-09-21T22:36:51.580Z,96216.59
2022-09-21T22:39:19.275Z,96211.59
2022-09-21T22:41:46.954Z,96200.44
2022-09-21T22:44:15.979Z,96205.03
2022-09-21T22:46:43.946Z,96210.28
2022-09-21T22:49:11.603Z,96206.66
2022-09-21T22:51:39.662Z,96207.50
2022-09-21T22:54:07.483Z,96197.81
2022-09-21T22:56:36.294Z,96202.09
2022-09-21T22:59:05.799Z,96207.50
2022-09-21T23:01:37.479Z,96208.63
2022-09-21T23:04:08.076Z,96208.19
2022-09-21T23:06:38.486Z,96213.81
2022-09-21T23:09:09.069Z,96207.59
2022-09-21T23:11:39.060Z,96209.84
2022-09-21T23:14:06.783Z,96218.59
2022-09-21T23:16:36.293Z,96216.59
2022-09-21T23:19:03.999Z,96210.44
2022-09-21T23:21:32.567Z,96210.59
2022-09-21T23:24:02.403Z,96206.97
2022-09-21T23:26:33.389Z,96200.09
2022-09-21T23:29:02.699Z,96203.38
2022-09-21T23:31:32.137Z,96201.44
2022-09-21T23:34:05.331Z,96199.78
2022-09-21T23:36:33.448Z,96199.09
2022-09-21T23:39:01.181Z,96195.34
2022-09-21T23:41:31.415Z,96188.47
2022-09-21T23:44:00.127Z,96195.34
2022-09-21T23:46:30.919Z,96191.91
2022-09-21T23:48:59.419Z,96192.22
2022-09-21T23:51:30.799Z,96188.22
2022-09-21T23:53:59.077Z,96193.47
2022-09-21T23:56:27.142Z,96193.19
2022-09-21T23:58:54.963Z,96193.19
